Time;durP1;ratioP1;P1;durP2;ratioP2;P2;SDS_P1;SDS_P2;PMS_P1;PMS_P2;Temp;Humidity;BMP_temperature;BMP_pressure;BME280_temperature;BME280_humidity;BME280_pressure;Samples;Min_cycle;Max_cycle;Signal;HPM_P1;HPM_P2
2022/11/11 00:02:13;;;;;;;38.50;20.20;;;;;;;8.81;96.87;101896.92;1809089;77;26470;-79
2022/11/11 00:04:58;;;;;;;33.73;19.87;;;;;;;8.82;96.98;101893.25;1816531;77;25671;-79
2022/11/11 00:07:43;;;;;;;33.38;19.45;;;;;;;8.82;97.01;101891.43;1823082;77;26507;-80
2022/11/11 00:10:29;;;;;;;34.08;20.43;;;;;;;8.81;96.98;101892.40;1792478;78;26542;-79
2022/11/11 00:13:14;;;;;;;30.77;20.37;;;;;;;8.82;97.07;101895.92;1788142;78;27652;-78
2022/11/11 00:16:09;;;;;;;36.60;19.40;;;;;;;8.83;97.13;101891.77;1812909;77;25474;-77
2022/11/11 00:25:05;;;;;;;36.58;20.72;;;;;;;8.85;97.27;101896.98;1832378;77;25924;-77
2022/11/11 00:27:50;;;;;;;37.08;20.62;;;;;;;8.88;97.27;101896.19;1790611;79;27453;-78
2022/11/11 00:30:35;;;;;;;37.83;20.40;;;;;;;8.90;97.35;101898.23;1782927;78;25795;-78
2022/11/11 00:33:19;;;;;;;34.33;20.30;;;;;;;8.90;97.34;101899.56;1815851;76;25758;-77
2022/11/11 00:36:05;;;;;;;38.25;22.22;;;;;;;8.92;97.48;101896.73;1814907;77;26532;-77
2022/11/11 00:38:51;;;;;;;36.45;21.50;;;;;;;8.95;97.58;101891.11;1815095;78;26503;-77
2022/11/11 00:41:36;;;;;;;35.80;20.77;;;;;;;8.94;97.63;101890.27;1819795;77;26906;-78
2022/11/11 00:44:21;;;;;;;33.05;21.27;;;;;;;8.98;97.79;101886.83;1831413;76;25773;-78
2022/11/11 00:53:31;;;;;;;32.20;19.17;;;;;;;9.03;97.77;101883.20;1809372;77;25928;-79
2022/11/11 00:56:16;;;;;;;40.03;22.20;;;;;;;9.05;97.86;101890.09;1820594;77;27463;-79
2022/11/11 00:59:06;;;;;;;36.42;20.65;;;;;;;9.06;97.88;101893.62;1825259;77;26414;-79
2022/11/11 01:01:50;;;;;;;34.83;21.20;;;;;;;9.05;97.86;101892.77;1818016;77;26541;-78
2022/11/11 01:04:35;;;;;;;42.40;21.30;;;;;;;9.07;98.01;101891.28;1826748;77;26524;-79
2022/11/11 01:07:20;;;;;;;41.00;20.05;;;;;;;9.08;97.96;101893.83;1794384;78;25911;-78
2022/11/11 01:10:05;;;;;;;32.80;19.50;;;;;;;9.10;98.08;101889.66;1795951;78;28718;-79
2022/11/11 01:13:10;;;;;;;32.58;18.70;;;;;;;9.11;98.03;101886.84;1833299;76;26480;-78
2022/11/11 01:15:51;;;;;;;32.45;18.60;;;;;;;9.13;98.04;101889.38;1828188;76;25818;-79
2022/11/11 01:18:35;;;;;;;36.80;18.85;;;;;;;9.12;98.12;101896.55;1833854;76;26581;-79
2022/11/11 01:21:23;;;;;;;40.17;20.17;;;;;;;9.16;98.26;101890.41;1829656;76;26532;-79
2022/11/11 01:24:08;;;;;;;30.55;17.77;;;;;;;9.18;98.22;101887.95;1814506;77;27479;-79
2022/11/11 01:26:53;;;;;;;29.60;18.77;;;;;;;9.19;98.15;101880.29;1824723;76;25737;-78
2022/11/11 01:29:38;;;;;;;29.32;18.55;;;;;;;9.19;97.98;101879.44;1819772;77;25750;-79
2022/11/11 01:32:22;;;;;;;33.92;18.62;;;;;;;9.22;98.14;101885.32;1809842;77;25936;-79
2022/11/11 01:35:08;;;;;;;34.85;18.98;;;;;;;9.24;97.97;101879.33;1819182;76;25834;-79
2022/11/11 01:37:52;;;;;;;35.60;19.52;;;;;;;9.24;97.88;101875.81;1787328;78;27475;-79
2022/11/11 01:40:43;;;;;;;31.20;18.45;;;;;;;9.25;97.81;101867.66;1813685;77;25833;-79
2022/11/11 01:43:28;;;;;;;31.45;20.30;;;;;;;9.26;97.64;101864.47;1809401;78;25266;-79
2022/11/11 01:46:48;;;;;;;35.85;19.32;;;;;;;9.23;97.50;101858.95;1794489;78;25805;-79
2022/11/11 01:49:41;;;;;;;33.20;20.27;;;;;;;9.23;97.42;101862.11;1820347;78;25840;-77
2022/11/11 01:52:31;;;;;;;31.82;19.12;;;;;;;9.20;97.14;101852.55;1774570;78;28249;-77
2022/11/11 01:55:21;;;;;;;34.05;18.55;;;;;;;9.18;96.96;101855.87;1788986;78;26358;-79
2022/11/11 01:58:10;;;;;;;33.75;19.10;;;;;;;9.15;96.86;101853.47;1758193;78;25828;-79
2022/11/11 02:00:58;;;;;;;33.70;17.95;;;;;;;9.13;96.84;101856.79;1815045;77;26609;-78
2022/11/11 02:05:40;;;;;;;30.75;17.82;;;;;;;9.13;96.70;101849.29;1819512;77;25710;-79
2022/11/11 02:06:32;;;;;;;27.60;19.17;;;;;;;9.12;96.71;101853.78;1815725;77;27421;-78
2022/11/11 02:09:17;;;;;;;40.33;18.55;;;;;;;9.10;96.55;101846.41;1832559;76;25797;-79
2022/11/11 02:15:11;;;;;;;35.63;18.92;;;;;;;9.07;96.48;101859.20;1809637;78;26287;-78
2022/11/11 02:17:57;;;;;;;31.77;17.82;;;;;;;9.05;96.42;101855.35;1821637;77;25869;-79
2022/11/11 02:20:44;;;;;;;29.18;18.90;;;;;;;9.04;96.42;101860.37;1818514;78;28325;-78
2022/11/11 02:23:40;;;;;;;33.25;19.95;;;;;;;9.02;96.34;101869.02;1782085;78;25291;-78
2022/11/11 02:26:26;;;;;;;31.95;19.52;;;;;;;8.99;96.31;101865.30;1769574;79;25748;-78
2022/11/11 02:29:16;;;;;;;29.77;18.07;;;;;;;8.98;96.28;101870.27;1832300;77;26365;-79
2022/11/11 02:32:01;;;;;;;30.95;18.90;;;;;;;8.96;96.22;101872.77;1792455;78;26321;-78
2022/11/11 02:34:46;;;;;;;37.35;18.42;;;;;;;8.94;96.22;101877.42;1827541;78;27619;-78
2022/11/11 02:37:30;;;;;;;35.83;17.23;;;;;;;8.90;96.25;101873.33;1816730;77;25969;-78
2022/11/11 02:40:35;;;;;;;32.00;17.95;;;;;;;8.85;96.19;101869.78;1812819;77;26380;-79
2022/11/11 02:43:20;;;;;;;29.57;16.67;;;;;;;8.81;96.30;101869.69;1802859;78;25798;-79
2022/11/11 02:46:06;;;;;;;28.27;16.55;;;;;;;8.78;96.40;101879.35;1821330;77;25783;-79
2022/11/11 02:48:52;;;;;;;31.50;16.82;;;;;;;8.75;96.39;101883.63;1839843;77;27613;-79
2022/11/11 02:51:37;;;;;;;29.50;16.15;;;;;;;8.74;96.58;101877.95;1834459;77;26595;-79
2022/11/11 02:54:21;;;;;;;34.80;17.12;;;;;;;8.72;96.73;101875.92;1817415;77;25695;-79
2022/11/11 02:57:06;;;;;;;31.52;16.57;;;;;;;8.73;96.89;101878.08;1816569;76;25773;-78
2022/11/11 02:59:51;;;;;;;30.52;15.93;;;;;;;8.73;97.03;101887.42;1814669;76;26393;-79
2022/11/11 03:02:37;;;;;;;28.35;16.10;;;;;;;8.73;97.23;101884.27;1835331;76;27439;-79
2022/11/11 03:05:22;;;;;;;24.87;15.18;;;;;;;8.73;97.24;101886.94;1817259;76;25696;-79
2022/11/11 03:08:07;;;;;;;27.75;15.28;;;;;;;8.74;97.32;101883.78;1800094;78;26386;-79
2022/11/11 03:10:52;;;;;;;28.50;15.28;;;;;;;8.75;97.39;101878.77;1808148;78;25825;-79
2022/11/11 03:13:37;;;;;;;25.27;15.03;;;;;;;8.72;97.38;101879.93;1814351;77;26497;-79
2022/11/11 03:19:25;;;;;;;29.18;14.53;;;;;;;8.71;97.35;101889.41;1823678;78;25783;-78
2022/11/11 03:22:10;;;;;;;26.42;15.53;;;;;;;8.71;97.37;101896.08;1803066;78;26655;-78
2022/11/11 03:27:59;;;;;;;28.55;15.00;;;;;;;8.72;97.55;101901.30;1799893;78;25989;-78
2022/11/11 03:30:47;;;;;;;24.70;13.38;;;;;;;8.76;97.47;101897.84;1813903;77;27453;-78
2022/11/11 03:33:32;;;;;;;27.67;14.25;;;;;;;8.79;97.34;101894.89;1818139;77;26416;-77
2022/11/11 03:36:17;;;;;;;30.77;14.10;;;;;;;8.78;97.30;101903.39;1833648;77;25840;-78
2022/11/11 03:39:02;;;;;;;27.30;14.47;;;;;;;8.81;97.40;101902.27;1825636;76;26291;-77
2022/11/11 03:41:47;;;;;;;25.45;13.80;;;;;;;8.83;97.34;101906.97;1818494;76;26316;-78
2022/11/11 03:44:32;;;;;;;25.55;13.25;;;;;;;8.83;97.28;101905.13;1813466;76;27369;-79
2022/11/11 03:47:17;;;;;;;25.60;13.03;;;;;;;8.85;97.38;101910.34;1823244;76;26296;-77
2022/11/11 03:50:02;;;;;;;29.60;13.78;;;;;;;8.83;97.36;101913.14;1785921;78;25740;-78
2022/11/11 03:52:47;;;;;;;23.10;12.88;;;;;;;8.84;97.46;101907.31;1802006;78;26545;-77
2022/11/11 03:55:32;;;;;;;26.27;14.47;;;;;;;8.87;97.49;101909.70;1806080;78;25764;-78
2022/11/11 03:58:18;;;;;;;26.00;14.70;;;;;;;8.88;97.56;101902.88;1787623;78;28312;-78
2022/11/11 04:10:21;;;;;;;25.23;13.55;;;;;;;8.88;97.43;101906.03;1800607;78;26586;-78
2022/11/11 04:16:04;;;;;;;27.85;13.80;;;;;;;8.90;97.88;101932.96;1796981;78;25849;-78
2022/11/11 04:21:44;;;;;;;21.75;13.08;;;;;;;8.90;97.88;101942.31;1750046;77;26618;-78
2022/11/11 04:27:32;;;;;;;21.68;12.43;;;;;;;8.93;97.95;101947.39;1826787;77;27685;-78
2022/11/11 04:30:17;;;;;;;33.73;13.62;;;;;;;8.91;97.93;101949.36;1819704;77;25958;-78
2022/11/11 04:33:02;;;;;;;21.55;11.40;;;;;;;8.91;97.95;101958.71;1790142;78;26463;-78
2022/11/11 04:35:50;;;;;;;27.25;13.70;;;;;;;8.90;97.95;101954.83;1836514;77;26533;-78
2022/11/11 04:41:38;;;;;;;25.80;12.63;;;;;;;8.89;98.15;101944.66;1822370;76;27384;-78
2022/11/11 04:47:26;;;;;;;21.57;11.53;;;;;;;8.89;98.38;101931.30;1833243;77;25788;-78
2022/11/11 04:50:11;;;;;;;18.75;12.82;;;;;;;8.90;98.37;101930.78;1816830;78;25955;-78
2022/11/11 04:52:56;;;;;;;19.55;11.93;;;;;;;8.86;98.43;101934.23;1826235;77;25796;-78
2022/11/11 04:58:46;;;;;;;21.87;11.75;;;;;;;8.86;98.68;101924.89;1818010;76;25275;-84
2022/11/11 05:04:34;;;;;;;22.62;12.10;;;;;;;8.86;98.87;101918.20;1824725;77;26376;-84
2022/11/11 05:10:24;;;;;;;19.35;11.30;;;;;;;8.91;99.00;101932.48;1827437;77;28250;-85
2022/11/11 05:22:40;;;;;;;18.35;10.45;;;;;;;8.90;99.12;101910.25;1822244;77;25301;-88
2022/11/11 05:25:29;;;;;;;16.95;11.00;;;;;;;8.90;99.17;101914.25;1811198;77;26360;-89
2022/11/11 05:28:13;;;;;;;22.82;11.57;;;;;;;8.87;99.16;101915.90;1799520;78;25309;-92
2022/11/11 05:30:58;;;;;;;20.40;10.50;;;;;;;8.87;99.28;101911.05;1793603;78;25913;-87
2022/11/11 05:33:42;;;;;;;19.48;11.68;;;;;;;8.89;99.36;101919.75;1802540;78;25758;-88
2022/11/11 05:36:27;;;;;;;22.10;11.33;;;;;;;8.89;99.35;101924.61;1791318;78;25301;-88
2022/11/11 05:39:12;;;;;;;23.12;11.15;;;;;;;8.91;99.50;101921.30;1790515;78;27387;-88
2022/11/11 05:41:57;;;;;;;22.87;10.60;;;;;;;8.95;99.41;101924.03;1791826;79;25735;-88
2022/11/11 05:44:42;;;;;;;21.80;10.95;;;;;;;8.95;99.39;101924.03;1785923;79;26065;-82
2022/11/11 05:47:27;;;;;;;22.32;10.78;;;;;;;8.96;99.33;101923.55;1819378;76;25814;-82
2022/11/11 05:50:12;;;;;;;18.12;9.93;;;;;;;8.95;99.28;101923.18;1825529;77;26322;-83
2022/11/11 05:52:57;;;;;;;22.70;10.48;;;;;;;8.95;99.33;101920.02;1819808;77;27454;-86
2022/11/11 05:55:41;;;;;;;21.20;11.28;;;;;;;8.96;99.41;101925.70;1807580;78;25654;-86
2022/11/11 05:58:26;;;;;;;19.32;9.93;;;;;;;8.96;99.40;101932.38;1820143;77;25746;-84
2022/11/11 06:01:10;;;;;;;22.35;10.82;;;;;;;8.98;99.48;101922.39;1806885;77;25953;-85
2022/11/11 06:03:55;;;;;;;22.05;11.20;;;;;;;9.00;99.48;101919.59;1828743;76;25753;-85
2022/11/11 06:06:40;;;;;;;19.85;10.38;;;;;;;9.03;99.52;101921.47;1824744;78;27466;-86
2022/11/11 06:09:24;;;;;;;20.02;9.98;;;;;;;9.05;99.42;101913.30;1825371;77;25838;-85
2022/11/11 06:12:09;;;;;;;20.05;11.00;;;;;;;9.06;99.36;101916.34;1816617;78;25262;-85
2022/11/11 06:14:54;;;;;;;21.40;10.60;;;;;;;9.05;99.36;101906.13;1818668;77;25766;-86
2022/11/11 06:17:38;;;;;;;22.52;11.40;;;;;;;9.06;99.46;101907.83;1821420;76;25779;-86
2022/11/11 06:20:23;;;;;;;18.85;10.70;;;;;;;9.09;99.57;101915.54;1830723;76;27433;-87
2022/11/11 06:23:08;;;;;;;19.90;10.60;;;;;;;9.09;99.44;101914.20;1833888;77;25812;-88
2022/11/11 06:26:12;;;;;;;18.75;10.25;;;;;;;9.11;99.56;101921.58;1813180;77;25925;-83
2022/11/11 06:28:56;;;;;;;18.02;10.58;;;;;;;9.16;99.56;101918.48;1826412;77;25720;-84
2022/11/11 06:31:42;;;;;;;18.02;11.00;;;;;;;9.15;99.56;101924.31;1819038;77;25535;-85
2022/11/11 06:34:27;;;;;;;17.90;11.00;;;;;;;9.18;99.64;101931.20;1823620;77;27653;-86
2022/11/11 06:37:12;;;;;;;23.38;10.85;;;;;;;9.21;99.62;101930.44;1786591;78;25652;-86
2022/11/11 06:39:56;;;;;;;20.75;10.72;;;;;;;9.24;99.57;101930.12;1822899;76;25296;-82
2022/11/11 06:42:41;;;;;;;17.92;9.55;;;;;;;9.26;99.48;101936.66;1817417;77;26441;-82
2022/11/11 06:45:29;;;;;;;20.95;10.65;;;;;;;9.27;99.46;101937.02;1813557;77;25463;-83
2022/11/11 06:48:13;;;;;;;21.40;10.53;;;;;;;9.28;99.41;101941.40;1816463;77;27677;-84
2022/11/11 06:51:05;;;;;;;21.82;10.75;;;;;;;9.29;99.42;101940.39;1815474;77;25293;-82
2022/11/11 06:53:49;;;;;;;19.73;11.38;;;;;;;9.32;99.44;101936.92;1818225;77;25293;-84
2022/11/11 06:56:34;;;;;;;24.45;11.38;;;;;;;9.30;99.29;101928.72;1823010;77;25789;-84
2022/11/11 06:59:19;;;;;;;23.67;11.78;;;;;;;9.28;99.28;101928.84;1826603;77;26083;-83
2022/11/11 07:02:12;;;;;;;16.80;10.32;;;;;;;9.28;99.36;101926.69;1822458;77;26941;-78
2022/11/11 07:04:58;;;;;;;22.87;11.73;;;;;;;9.30;99.44;101923.38;1816206;77;26503;-77
2022/11/11 07:07:43;;;;;;;19.85;11.05;;;;;;;9.30;99.60;101916.17;1826079;77;25872;-77
2022/11/11 07:10:29;;;;;;;21.93;12.23;;;;;;;9.34;99.55;101924.77;1821129;77;25772;-77
2022/11/11 07:13:15;;;;;;;21.52;10.93;;;;;;;9.36;99.60;101929.95;1823297;77;25912;-77
2022/11/11 07:15:59;;;;;;;22.05;11.50;;;;;;;9.39;99.56;101927.82;1809046;77;27401;-78
2022/11/11 07:18:44;;;;;;;21.62;11.38;;;;;;;9.39;99.39;101927.82;1809070;77;25705;-78
2022/11/11 07:21:29;;;;;;;19.32;10.20;;;;;;;9.43;99.52;101920.37;1786359;78;25864;-78
2022/11/11 07:24:13;;;;;;;24.80;10.80;;;;;;;9.48;99.60;101922.08;1809317;77;26997;-78
2022/11/11 07:26:59;;;;;;;19.40;10.05;;;;;;;9.49;99.58;101909.92;1815635;77;25763;-78
2022/11/11 07:29:44;;;;;;;19.42;10.48;;;;;;;9.52;99.55;101912.28;1810356;78;28157;-76
2022/11/11 07:32:29;;;;;;;20.50;9.85;;;;;;;9.58;99.98;101906.85;1821024;76;26311;-77
2022/11/11 07:35:15;;;;;;;20.10;11.03;;;;;;;9.64;100.00;101907.10;1781799;79;25774;-77
2022/11/11 07:38:00;;;;;;;20.02;9.43;;;;;;;9.72;99.92;101906.34;1806431;78;26452;-77
2022/11/11 07:40:45;;;;;;;20.50;9.73;;;;;;;9.76;99.51;101897.02;1809996;77;25838;-78
2022/11/11 07:43:30;;;;;;;19.17;8.65;;;;;;;9.78;99.33;101888.34;1797905;78;28272;-77
2022/11/11 07:46:14;;;;;;;18.42;9.90;;;;;;;9.80;99.26;101909.95;1780336;79;25939;-78
2022/11/11 07:48:59;;;;;;;29.27;14.00;;;;;;;9.82;99.04;101913.33;1780185;78;25926;-78
2022/11/11 07:51:43;;;;;;;35.20;18.12;;;;;;;9.85;98.92;101918.88;1817616;77;25787;-77
2022/11/11 07:54:28;;;;;;;20.45;12.28;;;;;;;9.89;99.06;101910.89;1818952;76;25814;-78
2022/11/11 07:57:13;;;;;;;26.37;13.85;;;;;;;9.93;98.99;101918.96;1824581;76;27500;-78
2022/11/11 07:59:58;;;;;;;19.00;13.08;;;;;;;9.96;98.89;101924.03;1817191;76;25758;-78
2022/11/11 08:02:48;;;;;;;19.52;12.43;;;;;;;9.96;98.77;101925.37;1817248;76;26451;-77
2022/11/11 08:05:33;;;;;;;19.37;10.80;;;;;;;9.98;98.69;101934.94;1819507;76;25776;-78
2022/11/11 08:08:23;;;;;;;17.60;11.50;;;;;;;9.99;98.41;101929.06;1810809;77;25718;-77
2022/11/11 08:11:05;;;;;;;20.57;12.37;;;;;;;10.02;98.51;101934.13;1809507;76;28277;-78
2022/11/11 08:13:50;;;;;;;115.37;53.70;;;;;;;10.04;98.57;101926.30;1804474;76;25852;-78
2022/11/11 08:16:35;;;;;;;71.37;40.73;;;;;;;10.09;98.62;101933.88;1823879;76;26474;-78
2022/11/11 08:19:20;;;;;;;48.95;24.65;;;;;;;10.13;98.56;101936.62;1816619;77;25926;-78
2022/11/11 08:22:05;;;;;;;29.02;16.50;;;;;;;10.16;98.40;101937.64;1817626;77;25708;-78
2022/11/11 08:24:50;;;;;;;37.90;22.60;;;;;;;10.20;98.35;101943.03;1828191;76;28282;-78
2022/11/11 08:27:36;;;;;;;40.85;25.20;;;;;;;10.22;98.27;101943.76;1804639;77;26366;-79
2022/11/11 08:30:21;;;;;;;59.73;31.73;;;;;;;10.28;98.49;101947.16;1783204;78;26237;-78
2022/11/11 08:33:05;;;;;;;32.93;18.98;;;;;;;10.33;98.23;101946.70;1775044;78;27047;-78
2022/11/11 08:35:53;;;;;;;22.37;13.35;;;;;;;10.34;98.01;101943.88;1823156;77;26346;-78
2022/11/11 08:38:38;;;;;;;23.32;12.37;;;;;;;10.39;97.79;101946.09;1825858;76;27370;-78
2022/11/11 08:41:23;;;;;;;22.20;11.15;;;;;;;10.42;97.94;101938.58;1817463;76;25303;-79
2022/11/11 08:44:08;;;;;;;20.55;11.22;;;;;;;10.46;97.62;101935.09;1811505;78;26422;-78
2022/11/11 08:46:53;;;;;;;24.67;17.07;;;;;;;10.49;97.65;101937.47;1821304;76;25868;-78
2022/11/11 08:49:38;;;;;;;17.37;10.43;;;;;;;10.51;97.37;101938.16;1824639;76;25254;-78
2022/11/11 08:52:23;;;;;;;18.62;10.23;;;;;;;10.53;97.02;101945.05;1811732;77;27454;-78
2022/11/11 08:55:07;;;;;;;33.23;21.60;;;;;;;10.55;97.20;101943.55;1821527;77;25761;-77
2022/11/11 08:58:00;;;;;;;23.12;13.18;;;;;;;10.59;97.14;101942.24;1819545;77;26458;-77
2022/11/11 09:00:45;;;;;;;20.88;10.65;;;;;;;10.62;96.87;101947.30;1820151;76;26074;-76
2022/11/11 09:03:30;;;;;;;19.27;10.48;;;;;;;10.65;96.85;101965.73;1825147;77;26167;-77
2022/11/11 09:06:16;;;;;;;25.00;11.45;;;;;;;10.67;96.81;101949.85;1825857;77;27433;-77
2022/11/11 09:09:01;;;;;;;17.32;11.35;;;;;;;10.72;96.94;101952.08;1828351;77;25900;-77
2022/11/11 09:11:45;;;;;;;14.28;9.30;;;;;;;10.76;96.85;101960.14;1840251;77;26803;-76
2022/11/11 09:14:30;;;;;;;19.50;9.53;;;;;;;10.81;96.50;101965.89;1836394;76;25834;-77
2022/11/11 09:17:16;;;;;;;19.92;9.05;;;;;;;10.81;96.28;101958.70;1832460;76;26411;-77
2022/11/11 09:20:00;;;;;;;18.35;9.33;;;;;;;10.83;95.92;101955.36;1837287;77;28262;-77
2022/11/11 09:22:47;;;;;;;16.05;9.10;;;;;;;10.83;96.14;101944.64;1825689;76;26654;-76
2022/11/11 09:25:32;;;;;;;21.73;9.83;;;;;;;10.85;95.94;101939.97;1836093;77;25276;-77
2022/11/11 09:28:17;;;;;;;19.80;9.58;;;;;;;10.88;95.99;101942.31;1818975;76;25820;-77
2022/11/11 09:31:03;;;;;;;18.80;9.73;;;;;;;10.92;96.14;101927.27;1795030;78;26453;-75
2022/11/11 09:33:47;;;;;;;19.48;10.00;;;;;;;10.95;96.12;101928.31;1827060;77;27609;-76
2022/11/11 09:36:32;;;;;;;19.77;9.45;;;;;;;10.99;96.15;101931.02;1828127;76;26202;-77
2022/11/11 09:39:17;;;;;;;21.85;8.58;;;;;;;11.01;95.72;101932.55;1820374;77;25288;-77
2022/11/11 09:42:39;;;;;;;18.48;9.85;;;;;;;11.01;95.50;101930.36;1788630;78;26358;-77
2022/11/11 09:46:04;;;;;;;17.57;9.53;;;;;;;11.00;95.39;101941.58;1814765;77;25917;-77
2022/11/11 09:49:09;;;;;;;17.60;9.60;;;;;;;11.00;95.47;101939.39;1818606;77;27395;-77
2022/11/11 09:52:23;;;;;;;22.93;9.33;;;;;;;11.01;95.40;101920.98;1808099;78;25821;-78
2022/11/11 09:55:27;;;;;;;13.53;7.60;;;;;;;11.00;95.26;101917.45;1812657;77;25725;-78
2022/11/11 09:58:22;;;;;;;18.32;8.95;;;;;;;11.00;95.23;101904.05;1819580;77;26471;-79
2022/11/11 10:01:27;;;;;;;18.12;9.35;;;;;;;11.02;95.24;101910.58;1819536;77;25822;-78
2022/11/11 10:04:26;;;;;;;19.37;9.48;;;;;;;11.02;95.22;101914.59;1822513;77;27458;-79
2022/11/11 10:07:25;;;;;;;17.70;8.93;;;;;;;11.04;95.36;101917.47;1817622;77;25905;-78
2022/11/11 10:10:15;;;;;;;23.15;9.38;;;;;;;11.06;95.22;101914.13;1813994;77;26417;-78
2022/11/11 10:13:00;;;;;;;20.73;8.17;;;;;;;11.06;94.94;101910.59;1834801;77;26322;-77
2022/11/11 10:16:13;;;;;;;17.23;8.93;;;;;;;11.06;95.03;101911.94;1827188;77;25769;-78
2022/11/11 10:19:25;;;;;;;16.15;8.35;;;;;;;11.08;94.87;101904.58;1812950;76;27449;-78
2022/11/11 10:22:34;;;;;;;21.20;9.55;;;;;;;11.10;94.76;101900.74;1826374;76;25887;-79
2022/11/11 10:25:25;;;;;;;15.45;8.50;;;;;;;11.10;94.71;101887.34;1824118;76;25856;-78
2022/11/11 10:28:17;;;;;;;16.20;8.85;;;;;;;11.12;94.80;101879.97;1802938;78;26074;-78
2022/11/11 10:31:06;;;;;;;14.63;8.50;;;;;;;11.15;94.69;101890.88;1815755;77;25950;-78
2022/11/11 10:34:11;;;;;;;21.33;9.10;;;;;;;11.14;94.74;101903.45;1811780;77;27449;-78
2022/11/11 10:36:57;;;;;;;23.65;12.00;;;;;;;11.19;94.85;101909.68;1827034;77;25522;-79
2022/11/11 10:40:17;;;;;;;25.72;14.93;;;;;;;11.18;94.20;101910.20;1815525;77;26416;-79
2022/11/11 10:43:02;;;;;;;18.37;9.83;;;;;;;11.20;94.40;101900.65;1784594;78;25932;-79
2022/11/11 10:46:05;;;;;;;17.95;8.93;;;;;;;11.25;94.21;101909.88;1805265;77;25900;-80
2022/11/11 10:49:01;;;;;;;17.35;9.35;;;;;;;11.28;94.25;101906.05;1820976;77;27486;-81
2022/11/11 10:51:58;;;;;;;16.30;9.20;;;;;;;11.31;93.99;101905.22;1773861;78;25732;-79
2022/11/11 10:55:08;;;;;;;19.57;8.38;;;;;;;11.34;93.71;101909.43;1815037;77;25564;-80
2022/11/11 10:58:25;;;;;;;17.60;8.20;;;;;;;11.37;93.92;101901.07;1807124;78;25883;-79
2022/11/11 11:01:13;;;;;;;17.95;8.93;;;;;;;11.42;93.73;101901.41;1820593;77;25781;-80
2022/11/11 11:04:06;;;;;;;15.20;7.37;;;;;;;11.44;93.52;101900.78;1827183;76;27384;-79
2022/11/11 11:06:53;;;;;;;16.57;7.80;;;;;;;11.48;93.60;101910.19;1821911;76;25902;-79
2022/11/11 11:10:00;;;;;;;20.37;8.90;;;;;;;11.50;93.43;101898.79;1810163;78;25587;-79
2022/11/11 11:13:06;;;;;;;15.88;8.85;;;;;;;11.52;93.27;101890.92;1814288;76;25924;-79
2022/11/11 11:15:58;;;;;;;23.27;9.93;;;;;;;11.54;93.15;101883.55;1824329;76;26231;-79
2022/11/11 11:18:43;;;;;;;29.20;14.03;;;;;;;11.53;92.57;101883.20;1817858;76;27607;-79
2022/11/11 11:21:47;;;;;;;20.77;10.80;;;;;;;11.54;92.58;101879.53;1819530;76;26116;-79
2022/11/11 11:24:36;;;;;;;13.78;8.48;;;;;;;11.56;92.49;101866.78;1819050;76;25816;-79
2022/11/11 11:27:25;;;;;;;18.92;12.25;;;;;;;11.56;92.23;101861.42;1826744;77;26717;-79
2022/11/11 11:30:18;;;;;;;19.07;9.93;;;;;;;11.57;92.48;101853.69;1822534;76;25880;-78
2022/11/11 11:33:06;;;;;;;26.07;10.68;;;;;;;11.59;92.27;101857.55;1824129;76;27422;-78
2022/11/11 11:35:51;;;;;;;19.80;8.45;;;;;;;11.59;92.03;101859.73;1818694;76;25881;-77
2022/11/11 11:38:42;;;;;;;22.67;10.30;;;;;;;11.59;92.03;101862.42;1808224;78;26536;-78
2022/11/11 11:41:50;;;;;;;22.35;12.93;;;;;;;11.60;92.00;101869.97;1786970;78;26423;-78
2022/11/11 11:44:37;;;;;;;20.72;8.30;;;;;;;11.61;92.16;101868.46;1794764;78;26014;-79
2022/11/11 11:47:36;;;;;;;15.98;7.70;;;;;;;11.62;91.48;101875.52;1821557;77;28284;-79
2022/11/11 11:50:57;;;;;;;17.98;8.63;;;;;;;11.60;91.62;101876.69;1821149;76;25281;-79
2022/11/11 11:54:05;;;;;;;16.73;7.33;;;;;;;11.60;91.46;101874.00;1820386;77;25889;-79
2022/11/11 11:56:55;;;;;;;16.62;8.23;;;;;;;11.58;91.09;101864.78;1830616;77;26510;-78
2022/11/11 11:59:51;;;;;;;14.73;7.87;;;;;;;11.59;91.59;101859.73;1826133;77;25919;-78
2022/11/11 12:02:51;;;;;;;18.37;8.08;;;;;;;11.61;91.62;101855.04;1822443;76;27388;-78
2022/11/11 12:05:56;;;;;;;12.93;6.53;;;;;;;11.63;91.44;101859.74;1824367;77;25966;-79
2022/11/11 12:08:58;;;;;;;25.72;11.70;;;;;;;11.65;91.56;101869.81;1826082;76;25977;-79
2022/11/11 12:11:55;;;;;;;22.48;9.15;;;;;;;11.68;91.61;101874.05;1823979;76;26564;-79
2022/11/11 12:15:16;;;;;;;21.57;9.68;;;;;;;11.69;91.49;101878.92;1828407;76;25751;-78
2022/11/11 12:18:45;;;;;;;18.75;10.58;;;;;;;11.71;91.47;101875.58;1812672;76;28282;-78
2022/11/11 12:21:44;;;;;;;19.95;10.45;;;;;;;11.69;91.11;101880.27;1832194;76;25768;-77
2022/11/11 12:25:03;;;;;;;23.45;11.55;;;;;;;11.69;90.96;101885.64;1821906;77;26042;-78
2022/11/11 12:28:15;;;;;;;14.70;9.23;;;;;;;11.67;90.81;101890.33;1830522;77;26547;-79
2022/11/11 12:31:23;;;;;;;24.63;12.23;;;;;;;11.67;90.92;101887.64;1817391;77;25922;-79
2022/11/11 12:34:38;;;;;;;26.02;12.70;;;;;;;11.64;90.52;101886.94;1823691;76;27385;-78
2022/11/11 12:38:06;;;;;;;22.27;12.90;;;;;;;11.63;90.53;101892.48;1816336;77;25830;-78
2022/11/11 12:41:18;;;;;;;66.50;29.50;;;;;;;11.62;90.57;101892.97;1779902;78;25867;-79
2022/11/11 12:44:12;;;;;;;27.32;16.50;;;;;;;11.60;90.38;101896.32;1816660;77;25927;-81
2022/11/11 12:47:02;;;;;;;22.50;14.45;;;;;;;11.58;90.54;101901.01;1797064;77;26484;-80
2022/11/11 12:49:59;;;;;;;18.55;11.03;;;;;;;11.58;90.61;101904.19;1821854;77;28217;-81
2022/11/11 12:52:56;;;;;;;18.10;11.63;;;;;;;11.58;90.64;101903.69;1819774;78;26379;-82
2022/11/11 12:56:13;;;;;;;19.55;8.78;;;;;;;11.57;90.68;101906.02;1784445;79;25807;-83
2022/11/11 12:59:18;;;;;;;16.23;9.13;;;;;;;11.57;90.52;101895.28;1803396;78;25830;-84
2022/11/11 13:02:37;;;;;;;29.15;17.98;;;;;;;11.61;90.85;101886.43;1820511;76;25933;-83
2022/11/11 13:05:58;;;;;;;24.80;14.90;;;;;;;11.62;90.57;101882.23;1815539;76;27448;-85
2022/11/11 13:09:20;;;;;;;20.70;12.23;;;;;;;11.61;90.32;101877.86;1819622;78;25599;-84
2022/11/11 13:12:17;;;;;;;18.07;9.58;;;;;;;11.59;90.30;101874.98;1729418;81;25930;-81
2022/11/11 13:15:21;;;;;;;21.15;13.78;;;;;;;11.59;90.45;101867.78;1823949;77;25774;-82
2022/11/11 13:18:19;;;;;;;22.10;9.90;;;;;;;11.59;90.30;101861.08;1826068;76;26089;-83
2022/11/11 13:21:15;;;;;;;18.37;10.32;;;;;;;11.59;90.17;101856.20;1813421;76;46739;-86
2022/11/11 13:24:00;;;;;;;18.87;11.15;;;;;;;11.56;90.04;101857.89;1849512;76;25991;-83
2022/11/11 13:26:59;;;;;;;17.65;11.08;;;;;;;11.54;90.22;101863.42;1806888;78;25971;-80
2022/11/11 13:29:52;;;;;;;17.90;8.53;;;;;;;11.52;89.81;101866.78;1775386;79;26499;-81
2022/11/11 13:32:46;;;;;;;21.05;10.10;;;;;;;11.48;89.97;101873.97;1816712;76;25270;-82
2022/11/11 13:35:56;;;;;;;14.85;8.48;;;;;;;11.45;89.79;101881.83;1836602;76;27367;-82
2022/11/11 13:38:47;;;;;;;17.25;10.23;;;;;;;11.43;90.03;101877.63;1830943;76;25778;-78
2022/11/11 13:41:36;;;;;;;20.82;8.75;;;;;;;11.44;90.19;101887.37;1818930;76;25274;-77
2022/11/11 13:44:32;;;;;;;23.02;11.50;;;;;;;11.44;89.93;101883.34;1821083;76;26519;-78
2022/11/11 13:47:25;;;;;;;26.33;14.50;;;;;;;11.43;90.10;101882.98;1822738;76;25632;-83
2022/11/11 13:50:29;;;;;;;22.37;13.58;;;;;;;11.41;90.15;101893.89;1798652;78;27506;-83
2022/11/11 13:53:30;;;;;;;20.97;11.08;;;;;;;11.41;90.16;101897.06;1809294;77;26472;-81
2022/11/11 13:56:28;;;;;;;20.57;11.65;;;;;;;11.39;90.25;101897.23;1817279;77;25909;-82
2022/11/11 13:59:29;;;;;;;19.87;10.70;;;;;;;11.39;90.23;101896.39;1809835;77;25769;-83
2022/11/11 14:02:28;;;;;;;20.68;11.55;;;;;;;11.37;90.44;101893.88;1826561;76;25870;-78
2022/11/11 14:05:17;;;;;;;20.95;11.50;;;;;;;11.38;90.53;101890.67;1820461;77;27387;-78
2022/11/11 14:08:02;;;;;;;19.15;10.85;;;;;;;11.39;90.53;101888.34;1792229;78;25648;-77